createdAt,value
2019-01-16T00:01:54.210Z,14.60
2019-01-16T00:06:57.803Z,14.87
2019-01-16T00:12:04.389Z,13.67
2019-01-16T00:17:10.785Z,15.93
2019-01-16T00:22:14.327Z,14.27
2019-01-16T00:27:34.968Z,17.50
2019-01-16T00:32:44.412Z,18.63
2019-01-16T00:37:54.034Z,17.23
2019-01-16T00:43:00.336Z,13.97
2019-01-16T00:48:13.077Z,14.10
2019-01-16T00:53:19.576Z,11.70
2019-01-16T00:58:35.287Z,12.03
2019-01-16T01:03:38.816Z,15.97
2019-01-16T01:08:42.443Z,17.50
2019-01-16T01:14:02.253Z,13.70
2019-01-16T01:19:09.260Z,15.10
2019-01-16T01:24:15.866Z,13.40
2019-01-16T01:29:25.454Z,13.33
2019-01-16T01:34:29.088Z,13.03
2019-01-16T01:39:35.761Z,13.20
2019-01-16T01:44:55.872Z,13.33
2019-01-16T01:49:59.474Z,8.90
2019-01-16T01:55:09.275Z,13.30
2019-01-16T02:00:13.134Z,9.57
2019-01-16T02:05:19.543Z,11.53
2019-01-16T02:10:23.099Z,11.57
2019-01-16T02:15:29.426Z,12.47
2019-01-16T02:20:32.952Z,12.77
2019-01-16T02:25:55.145Z,13.17
2019-01-16T02:31:13.533Z,11.17
2019-01-16T02:36:23.021Z,12.60
2019-01-16T02:41:41.657Z,12.70
2019-01-16T02:46:45.373Z,10.97
2019-01-16T02:52:05.516Z,9.70
2019-01-16T02:57:21.478Z,12.00
2019-01-16T03:02:28.061Z,10.90
2019-01-16T03:07:43.490Z,13.87
2019-01-16T03:13:02.499Z,11.70
2019-01-16T03:18:18.326Z,12.70
2019-01-16T03:23:30.965Z,11.70
2019-01-16T03:28:51.320Z,10.43
2019-01-16T03:34:00.795Z,11.30
2019-01-16T03:39:07.898Z,12.80
2019-01-16T03:44:11.432Z,14.20
2019-01-16T03:49:33.567Z,17.00
2019-01-16T03:54:42.969Z,14.50
2019-01-16T04:00:04.820Z,15.97
2019-01-16T04:05:11.273Z,14.77
2019-01-16T04:10:20.680Z,14.80
2019-01-16T04:15:30.252Z,17.67
2019-01-16T04:20:43.083Z,18.10
2019-01-16T04:25:46.726Z,17.17
2019-01-16T04:30:52.986Z,17.60
2019-01-16T04:35:56.558Z,16.43
2019-01-16T04:41:15.425Z,18.40
2019-01-16T04:46:19.413Z,19.03
2019-01-16T04:51:39.538Z,13.00
2019-01-16T04:56:51.884Z,12.60
2019-01-16T05:01:55.526Z,19.10
2019-01-16T05:07:15.871Z,18.37
2019-01-16T05:12:36.206Z,19.40
2019-01-16T05:17:45.581Z,21.60
2019-01-16T05:22:58.241Z,18.77
2019-01-16T05:28:10.683Z,21.50
2019-01-16T05:33:14.318Z,23.73
2019-01-16T05:38:29.837Z,36.10
2019-01-16T05:43:42.463Z,25.20
2019-01-16T05:48:48.885Z,24.80
2019-01-16T05:54:09.034Z,16.97
2019-01-16T05:59:24.728Z,21.50
2019-01-16T06:04:30.828Z,24.27
2019-01-16T06:09:37.356Z,25.83
2019-01-16T06:14:49.423Z,22.67
2019-01-16T06:20:01.791Z,25.97
2019-01-16T06:25:07.048Z,26.13
2019-01-16T06:30:25.337Z,24.90
2019-01-16T06:35:51.924Z,20.80
2019-01-16T06:41:09.845Z,26.37
2019-01-16T06:46:25.370Z,23.93
2019-01-16T06:51:31.638Z,26.77
2019-01-16T06:56:50.293Z,24.50
2019-01-16T07:02:13.995Z,24.50
2019-01-16T07:07:18.050Z,22.13
2019-01-16T07:12:38.293Z,22.53
2019-01-16T07:17:59.865Z,23.77
2019-01-16T07:23:06.787Z,19.63
2019-01-16T07:28:13.298Z,25.87
2019-01-16T07:33:35.809Z,21.73
2019-01-16T07:38:56.662Z,22.43
2019-01-16T07:44:08.999Z,18.70
2019-01-16T07:49:15.415Z,19.10
2019-01-16T07:54:18.898Z,21.77
2019-01-16T07:59:22.500Z,20.40
2019-01-16T08:04:42.743Z,20.43
2019-01-16T08:10:02.910Z,20.53
2019-01-16T08:15:09.491Z,18.80
2019-01-16T08:20:13.158Z,22.00
2019-01-16T08:25:16.797Z,20.93
2019-01-16T08:30:26.139Z,16.73
2019-01-16T08:35:32.182Z,18.17
2019-01-16T08:40:40.541Z,21.77
2019-01-16T08:45:49.836Z,20.83
2019-01-16T08:50:53.472Z,20.23
2019-01-16T08:56:02.965Z,20.00
2019-01-16T09:01:12.236Z,19.37
2019-01-16T09:06:19.923Z,23.20
2019-01-16T09:11:40.244Z,18.47
2019-01-16T09:16:43.836Z,16.60
2019-01-16T09:22:02.527Z,21.73
2019-01-16T09:27:12.012Z,14.70
2019-01-16T09:32:33.886Z,16.40
2019-01-16T09:37:42.283Z,12.50
2019-01-16T09:42:58.066Z,13.80
2019-01-16T09:48:17.914Z,11.50
2019-01-16T09:53:21.865Z,11.63
2019-01-16T09:58:37.395Z,12.80
2019-01-16T10:03:40.898Z,10.63
2019-01-16T10:08:46.752Z,10.43
2019-01-16T10:13:59.430Z,14.63
2019-01-16T10:19:09.448Z,13.63
2019-01-16T10:24:19.461Z,12.03
2019-01-16T10:29:26.092Z,12.80
2019-01-16T10:34:35.711Z,13.10
2019-01-16T10:39:48.292Z,11.60
2019-01-16T10:44:51.821Z,11.13
2019-01-16T10:50:01.303Z,13.47
2019-01-16T10:55:08.277Z,13.50
2019-01-16T11:00:13.619Z,14.57
2019-01-16T11:05:22.925Z,14.80
2019-01-16T11:10:32.131Z,14.50
2019-01-16T11:15:41.755Z,12.07
2019-01-16T11:20:45.391Z,16.00
2019-01-16T11:25:48.971Z,18.27
2019-01-16T11:30:55.609Z,12.47
2019-01-16T11:35:59.117Z,16.50
2019-01-16T11:41:11.961Z,20.00
2019-01-16T11:46:18.647Z,18.47
2019-01-16T11:51:22.174Z,17.80
2019-01-16T11:56:25.807Z,20.50
2019-01-16T12:01:35.968Z,20.30
2019-01-16T12:06:42.697Z,26.80
2019-01-16T12:11:49.010Z,24.20
2019-01-16T12:16:54.309Z,22.30
2019-01-16T12:21:57.927Z,18.27
2019-01-16T12:27:18.338Z,21.87
2019-01-16T12:32:30.971Z,13.00
2019-01-16T12:37:34.624Z,15.20
2019-01-16T12:42:44.353Z,13.47
2019-01-16T12:47:51.049Z,14.80
2019-01-16T12:52:57.111Z,18.70
2019-01-16T12:58:18.007Z,19.77
2019-01-16T13:03:21.580Z,19.63
2019-01-16T13:08:41.686Z,23.00
2019-01-16T13:13:47.972Z,22.30
2019-01-16T13:18:51.502Z,16.60
2019-01-16T13:24:04.403Z,13.60
2019-01-16T13:29:17.134Z,11.80
2019-01-16T13:34:26.801Z,9.27
2019-01-16T13:39:30.300Z,8.50
2019-01-16T13:44:36.518Z,13.63
2019-01-16T13:49:58.380Z,21.93
2019-01-16T13:55:07.822Z,27.13
2019-01-16T14:00:13.199Z,19.60
2019-01-16T14:05:23.136Z,19.00
2019-01-16T14:10:27.131Z,16.20
2019-01-16T14:15:45.164Z,18.13
2019-01-16T14:20:50.905Z,13.53
2019-01-16T14:26:16.091Z,19.33
2019-01-16T14:31:20.279Z,19.30
2019-01-16T14:36:27.042Z,19.53
2019-01-16T14:41:33.593Z,15.40
2019-01-16T14:46:46.293Z,15.87
2019-01-16T14:51:50.704Z,17.73
2019-01-16T14:56:54.326Z,16.93
2019-01-16T15:01:58.412Z,18.47
2019-01-16T15:07:02.302Z,13.07
2019-01-16T15:12:11.866Z,21.93
2019-01-16T15:17:18.293Z,28.33
2019-01-16T15:22:28.093Z,29.73
2019-01-16T15:27:49.803Z,28.40
2019-01-16T15:32:56.407Z,28.50
2019-01-16T15:38:02.746Z,33.00
2019-01-16T15:43:15.413Z,30.70
2019-01-16T15:48:40.382Z,33.70
2019-01-16T15:54:03.114Z,32.03
2019-01-16T15:59:19.201Z,28.37
2019-01-16T16:04:26.523Z,33.47
2019-01-16T16:09:42.925Z,32.10
2019-01-16T16:14:52.549Z,31.10
2019-01-16T16:19:58.859Z,34.67
2019-01-16T16:25:19.475Z,35.60
2019-01-16T16:30:29.098Z,36.50
2019-01-16T16:35:35.608Z,40.20
2019-01-16T16:40:42.323Z,43.23
2019-01-16T16:45:58.744Z,36.33
2019-01-16T16:51:06.521Z,35.13
2019-01-16T16:56:13.250Z,49.97
2019-01-16T17:01:16.854Z,41.27
2019-01-16T17:06:26.422Z,46.17
2019-01-16T17:11:39.274Z,44.80
2019-01-16T17:16:42.993Z,56.87
2019-01-16T17:21:46.723Z,50.20
2019-01-16T17:26:50.321Z,57.67
2019-01-16T17:32:10.377Z,59.00
2019-01-16T17:37:16.737Z,55.67
2019-01-16T17:42:26.314Z,62.33
2019-01-16T17:47:29.891Z,57.87
2019-01-16T17:53:03.270Z,56.07
2019-01-16T17:58:14.133Z,47.17
2019-01-16T18:03:18.019Z,54.43
2019-01-16T18:08:21.641Z,50.90
2019-01-16T18:13:31.218Z,51.40
2019-01-16T18:18:40.371Z,61.90
2019-01-16T18:23:49.726Z,53.17
2019-01-16T18:29:02.687Z,49.83
2019-01-16T18:34:18.525Z,49.50
2019-01-16T18:39:24.607Z,50.27
2019-01-16T18:44:28.106Z,46.00
2019-01-16T18:49:37.837Z,48.00
2019-01-16T18:54:50.202Z,48.07
2019-01-16T19:00:00.921Z,45.40
2019-01-16T19:05:09.683Z,58.63
2019-01-16T19:10:22.141Z,52.77
2019-01-16T19:15:34.944Z,47.97
2019-01-16T19:20:38.532Z,58.63
2019-01-16T19:25:42.123Z,55.13
2019-01-16T19:30:45.784Z,80.90
2019-01-16T19:35:52.355Z,70.57
2019-01-16T19:41:07.789Z,69.60
2019-01-16T19:46:11.371Z,48.87
2019-01-16T19:51:30.409Z,82.97
2019-01-16T19:56:46.081Z,89.53
2019-01-16T20:01:55.994Z,75.37
2019-01-16T20:07:17.695Z,69.90
2019-01-16T20:12:23.744Z,64.93
2019-01-16T20:17:42.964Z,64.97
2019-01-16T20:22:58.865Z,48.40
2019-01-16T20:28:19.740Z,48.60
2019-01-16T20:33:23.341Z,51.03
2019-01-16T20:38:39.010Z,44.80
2019-01-16T20:44:10.840Z,37.90
2019-01-16T20:49:32.551Z,50.90
2019-01-16T20:54:43.299Z,52.00
2019-01-16T20:59:56.023Z,52.23
2019-01-16T21:05:16.529Z,58.03
2019-01-16T21:10:29.571Z,56.30
2019-01-16T21:15:52.401Z,55.60
2019-01-16T21:20:55.942Z,50.37
2019-01-16T21:26:02.383Z,50.53
2019-01-16T21:31:06.198Z,48.63
2019-01-16T21:36:13.408Z,51.50
2019-01-16T21:41:17.089Z,46.60
2019-01-16T21:46:37.853Z,45.10
2019-01-16T21:51:58.274Z,31.43
2019-01-16T21:57:18.535Z,49.90
2019-01-16T22:02:22.374Z,42.77
2019-01-16T22:07:31.800Z,39.80
2019-01-16T22:12:35.412Z,22.07
2019-01-16T22:17:44.826Z,10.33
2019-01-16T22:22:51.461Z,6.90
2019-01-16T22:28:10.141Z,6.63
2019-01-16T22:33:19.814Z,5.43
2019-01-16T22:38:41.664Z,5.30
2019-01-16T22:43:45.279Z,4.00
2019-01-16T22:48:49.117Z,3.07
2019-01-16T22:53:56.071Z,2.90
2019-01-16T22:59:02.815Z,2.50
2019-01-16T23:04:15.695Z,2.20
2019-01-16T23:09:22.245Z,3.17
2019-01-16T23:14:26.323Z,3.50
2019-01-16T23:19:46.893Z,3.00
2019-01-16T23:24:50.820Z,2.70
2019-01-16T23:30:00.653Z,3.80
2019-01-16T23:35:23.484Z,2.67
2019-01-16T23:40:36.070Z,2.70
2019-01-16T23:45:45.569Z,2.50
2019-01-16T23:50:49.248Z,2.70
2019-01-16T23:55:55.642Z,3.83
